Time;durP1;ratioP1;P1;durP2;ratioP2;P2;SDS_P1;SDS_P2;PMS_P1;PMS_P2;Temp;Humidity;BMP_temperature;BMP_pressure;BME280_temperature;BME280_humidity;BME280_pressure;Samples;Min_cycle;Max_cycle;Signal;HPM_P1;HPM_P2
2022/04/11 00:02:08;;;;;;;9.30;1.55;;;;;;;;;;5078019;28;20084;-74
2022/04/11 00:04:34;;;;;;;9.63;1.65;;;;;;;;;;5059496;28;20036;-74
2022/04/11 00:06:59;;;;;;;14.68;1.50;;;;;;;;;;5065923;28;20070;-78
2022/04/11 00:09:25;;;;;;;5.80;0.82;;;;;;;;;;5061981;28;20135;-76
2022/04/11 00:11:51;;;;;;;6.68;1.08;;;;;;;;;;5077480;28;20034;-75
2022/04/11 00:14:17;;;;;;;11.98;1.48;;;;;;;;;;5081631;28;20227;-75
2022/04/11 00:16:42;;;;;;;9.30;1.42;;;;;;;;;;5078012;28;20024;-76
2022/04/11 00:19:08;;;;;;;6.53;0.98;;;;;;;;;;5084511;28;20032;-75
2022/04/11 00:21:34;;;;;;;9.57;1.20;;;;;;;;;;5077408;28;20019;-76
2022/04/11 00:24:00;;;;;;;18.55;1.40;;;;;;;;;;5078232;28;20112;-76
2022/04/11 00:26:26;;;;;;;8.48;1.45;;;;;;;;;;5075265;28;20023;-76
2022/04/11 00:28:53;;;;;;;13.98;2.05;;;;;;;;;;5078194;28;20039;-75
2022/04/11 00:31:18;;;;;;;14.70;1.85;;;;;;;;;;5077796;28;20025;-76
2022/04/11 00:33:44;;;;;;;12.52;1.50;;;;;;;;;;5078630;28;20130;-76
2022/04/11 00:36:09;;;;;;;15.48;1.60;;;;;;;;;;5089483;28;20091;-76
2022/04/11 00:38:35;;;;;;;11.88;2.22;;;;;;;;;;5066282;28;20170;-75
2022/04/11 00:41:00;;;;;;;19.55;1.67;;;;;;;;;;5079922;28;20032;-76
2022/04/11 00:43:34;;;;;;;26.52;2.83;;;;;;;;;;5073767;28;20036;-75
2022/04/11 00:46:00;;;;;;;12.15;1.98;;;;;;;;;;5084816;28;20032;-75
2022/04/11 00:48:26;;;;;;;14.23;1.88;;;;;;;;;;5081583;28;20332;-76
2022/04/11 00:50:56;;;;;;;9.70;1.85;;;;;;;;;;5076061;28;20040;-76
2022/04/11 00:53:21;;;;;;;10.07;2.30;;;;;;;;;;5077505;28;20013;-76
2022/04/11 00:55:47;;;;;;;14.95;2.45;;;;;;;;;;5082937;28;20190;-75
2022/04/11 00:58:13;;;;;;;15.25;2.63;;;;;;;;;;5065819;28;20025;-76
2022/04/11 01:00:40;;;;;;;10.23;2.03;;;;;;;;;;5098161;28;20080;-75
2022/04/11 01:03:05;;;;;;;12.32;1.95;;;;;;;;;;5078768;28;20019;-75
2022/04/11 01:05:31;;;;;;;9.82;1.83;;;;;;;;;;5047053;28;20043;-75
2022/04/11 01:08:06;;;;;;;7.00;1.60;;;;;;;;;;5066094;28;20263;-76
2022/04/11 01:10:31;;;;;;;17.77;2.13;;;;;;;;;;5080639;28;20274;-76
2022/04/11 01:12:57;;;;;;;18.17;2.33;;;;;;;;;;5079625;28;20073;-76
2022/04/11 01:15:22;;;;;;;15.43;1.98;;;;;;;;;;5077715;28;20074;-77
2022/04/11 01:17:48;;;;;;;6.68;1.60;;;;;;;;;;5064416;28;20088;-81
2022/04/11 01:20:16;;;;;;;11.27;1.27;;;;;;;;;;5077386;28;20032;-82
2022/04/11 01:22:43;;;;;;;22.10;2.45;;;;;;;;;;5080862;28;20074;-81
2022/04/11 01:25:10;;;;;;;10.27;1.70;;;;;;;;;;5077958;28;20096;-82
2022/04/11 01:27:37;;;;;;;14.93;1.88;;;;;;;;;;5096691;28;20103;-81
2022/04/11 01:30:04;;;;;;;11.70;1.90;;;;;;;;;;5082938;28;20016;-82
2022/04/11 01:32:29;;;;;;;12.73;2.20;;;;;;;;;;5064005;28;20024;-82
2022/04/11 01:34:56;;;;;;;11.90;2.05;;;;;;;;;;5085468;28;20227;-82
2022/04/11 01:37:22;;;;;;;11.93;1.83;;;;;;;;;;5075928;28;20047;-82
2022/04/11 01:39:47;;;;;;;13.15;2.13;;;;;;;;;;5080873;28;20028;-82
2022/04/11 01:42:13;;;;;;;10.95;1.63;;;;;;;;;;5067131;28;20197;-82
2022/04/11 01:44:38;;;;;;;13.43;1.98;;;;;;;;;;5066290;28;20020;-81
2022/04/11 01:47:04;;;;;;;12.40;1.60;;;;;;;;;;5076868;28;20028;-81
2022/04/11 01:49:30;;;;;;;13.43;1.83;;;;;;;;;;5080417;28;20179;-81
2022/04/11 01:51:55;;;;;;;15.25;1.80;;;;;;;;;;5079164;28;20232;-82
2022/04/11 01:54:21;;;;;;;11.63;2.20;;;;;;;;;;5081134;28;20229;-82
2022/04/11 01:56:47;;;;;;;4.50;1.08;;;;;;;;;;5084311;28;20059;-81
2022/04/11 01:59:14;;;;;;;14.90;1.40;;;;;;;;;;5081446;28;20016;-82
2022/04/11 02:01:40;;;;;;;10.65;1.60;;;;;;;;;;5081023;28;20325;-83
2022/04/11 02:04:06;;;;;;;10.15;1.20;;;;;;;;;;5084932;28;20056;-85
2022/04/11 02:06:32;;;;;;;15.18;1.85;;;;;;;;;;5085441;28;20036;-83
2022/04/11 02:08:58;;;;;;;13.85;1.55;;;;;;;;;;5066553;28;20030;-83
2022/04/11 02:11:23;;;;;;;11.35;1.80;;;;;;;;;;5060457;28;20183;-82
2022/04/11 02:13:49;;;;;;;11.23;1.33;;;;;;;;;;5096819;28;20024;-76
2022/04/11 02:16:14;;;;;;;12.00;1.80;;;;;;;;;;5065122;28;20020;-75
2022/04/11 02:18:40;;;;;;;9.32;1.30;;;;;;;;;;5080100;28;20016;-75
2022/04/11 02:21:05;;;;;;;11.52;2.03;;;;;;;;;;5082736;28;20024;-75
2022/04/11 02:23:31;;;;;;;11.70;1.73;;;;;;;;;;5059950;28;20222;-82
2022/04/11 02:25:56;;;;;;;4.57;1.35;;;;;;;;;;5061410;28;20144;-82
2022/04/11 02:28:22;;;;;;;11.32;1.63;;;;;;;;;;5077573;28;20020;-75
2022/04/11 02:30:47;;;;;;;10.60;2.28;;;;;;;;;;5073730;28;20266;-75
2022/04/11 02:33:13;;;;;;;8.45;1.40;;;;;;;;;;5078908;28;20012;-76
2022/04/11 02:35:40;;;;;;;11.45;1.48;;;;;;;;;;5074619;28;20012;-76
2022/04/11 02:38:06;;;;;;;12.13;1.77;;;;;;;;;;5060460;28;20046;-76
2022/04/11 02:40:31;;;;;;;8.25;1.08;;;;;;;;;;5073746;28;20011;-75
2022/04/11 02:42:57;;;;;;;11.32;1.60;;;;;;;;;;5059147;28;20093;-76
2022/04/11 02:45:23;;;;;;;7.93;1.40;;;;;;;;;;5078152;28;21058;-76
2022/04/11 02:47:48;;;;;;;13.52;1.67;;;;;;;;;;5059898;28;20033;-76
2022/04/11 02:50:14;;;;;;;11.32;1.77;;;;;;;;;;5057586;28;20070;-76
2022/04/11 02:52:40;;;;;;;11.43;1.33;;;;;;;;;;5078128;28;20048;-76
2022/04/11 02:55:06;;;;;;;10.50;1.42;;;;;;;;;;5077286;28;20047;-76
2022/04/11 02:57:32;;;;;;;7.00;1.77;;;;;;;;;;5059376;28;20017;-75
2022/04/11 02:59:57;;;;;;;7.82;1.85;;;;;;;;;;5059505;28;20017;-76
2022/04/11 03:02:23;;;;;;;6.05;1.13;;;;;;;;;;5075526;28;20079;-76
2022/04/11 03:04:49;;;;;;;10.20;1.65;;;;;;;;;;5075185;28;20012;-82
2022/04/11 03:07:14;;;;;;;7.43;1.42;;;;;;;;;;5080364;28;20028;-84
2022/04/11 03:09:40;;;;;;;6.20;1.23;;;;;;;;;;5080828;28;20021;-76
2022/04/11 03:12:06;;;;;;;8.45;1.77;;;;;;;;;;5060169;28;20016;-76
2022/04/11 03:14:32;;;;;;;8.90;1.73;;;;;;;;;;5091224;28;20269;-76
2022/04/11 03:16:58;;;;;;;5.28;1.17;;;;;;;;;;5094120;28;20055;-75
2022/04/11 03:19:25;;;;;;;9.55;1.20;;;;;;;;;;5077207;28;20016;-76
2022/04/11 03:21:50;;;;;;;9.02;1.30;;;;;;;;;;5057320;28;20088;-76
2022/04/11 03:24:16;;;;;;;10.57;1.42;;;;;;;;;;5077257;28;20072;-75
2022/04/11 03:26:41;;;;;;;9.45;1.40;;;;;;;;;;5077346;28;20008;-76
2022/04/11 03:29:07;;;;;;;21.92;1.85;;;;;;;;;;5077657;28;20031;-76
2022/04/11 03:31:32;;;;;;;17.98;2.10;;;;;;;;;;5062330;28;20083;-76
2022/04/11 03:33:58;;;;;;;5.95;1.35;;;;;;;;;;5080455;28;20290;-75
2022/04/11 03:36:24;;;;;;;6.40;1.38;;;;;;;;;;5060941;28;20024;-76
2022/04/11 03:38:50;;;;;;;9.07;1.77;;;;;;;;;;5078309;28;20298;-75
2022/04/11 03:41:15;;;;;;;10.40;1.33;;;;;;;;;;5063887;28;20020;-76
2022/04/11 03:43:41;;;;;;;6.70;1.25;;;;;;;;;;5072485;28;20083;-75
2022/04/11 03:46:06;;;;;;;9.35;1.20;;;;;;;;;;5079338;28;20009;-76
2022/04/11 03:48:32;;;;;;;16.40;1.73;;;;;;;;;;5066698;28;20024;-76
2022/04/11 03:50:57;;;;;;;8.25;1.70;;;;;;;;;;5057743;28;20155;-75
2022/04/11 03:53:23;;;;;;;4.38;1.33;;;;;;;;;;5080546;28;20031;-76
2022/04/11 03:55:48;;;;;;;7.57;0.98;;;;;;;;;;5077682;28;20067;-75
2022/04/11 03:58:14;;;;;;;6.53;1.20;;;;;;;;;;5090134;28;20274;-75
2022/04/11 04:00:39;;;;;;;11.57;1.30;;;;;;;;;;5078002;28;20197;-76
2022/04/11 04:03:06;;;;;;;7.85;1.10;;;;;;;;;;5092905;28;20012;-75
2022/04/11 04:05:32;;;;;;;14.10;1.75;;;;;;;;;;5077872;28;20021;-75
2022/04/11 04:07:58;;;;;;;10.93;1.77;;;;;;;;;;5077067;28;20232;-76
2022/04/11 04:10:26;;;;;;;7.72;1.35;;;;;;;;;;5075485;28;20017;-76
2022/04/11 04:12:57;;;;;;;15.48;1.48;;;;;;;;;;5079556;28;20251;-76
2022/04/11 04:15:23;;;;;;;16.75;1.48;;;;;;;;;;5075916;28;20008;-76
2022/04/11 04:17:48;;;;;;;14.88;1.85;;;;;;;;;;5077636;28;20024;-76
2022/04/11 04:20:14;;;;;;;9.65;1.20;;;;;;;;;;5081228;28;20012;-75
2022/04/11 04:22:39;;;;;;;10.18;1.52;;;;;;;;;;5062284;28;20044;-75
2022/04/11 04:25:05;;;;;;;12.02;1.75;;;;;;;;;;5077630;28;20078;-75
2022/04/11 04:27:31;;;;;;;22.27;1.83;;;;;;;;;;5079678;28;20020;-75
2022/04/11 04:29:56;;;;;;;27.33;2.17;;;;;;;;;;5043416;28;20025;-76
2022/04/11 04:32:22;;;;;;;10.95;1.63;;;;;;;;;;5083645;28;20316;-76
2022/04/11 04:34:48;;;;;;;11.50;1.52;;;;;;;;;;5042569;28;20035;-76
2022/04/11 04:37:14;;;;;;;9.75;1.30;;;;;;;;;;5061778;28;20017;-75
2022/04/11 04:39:39;;;;;;;8.60;1.23;;;;;;;;;;5082626;28;20043;-76
2022/04/11 04:42:05;;;;;;;8.45;1.48;;;;;;;;;;5056524;28;20085;-75
2022/04/11 04:44:31;;;;;;;5.53;1.20;;;;;;;;;;5080874;28;20278;-75
2022/04/11 04:46:56;;;;;;;5.47;1.17;;;;;;;;;;5077081;28;20020;-75
2022/04/11 04:49:22;;;;;;;9.25;1.50;;;;;;;;;;5060623;28;20046;-76
2022/04/11 04:51:47;;;;;;;12.63;1.42;;;;;;;;;;5077867;28;20090;-76
2022/04/11 04:54:13;;;;;;;12.32;2.45;;;;;;;;;;5042350;28;20021;-75
2022/04/11 04:56:38;;;;;;;14.40;1.30;;;;;;;;;;5062127;28;20084;-75
2022/04/11 04:59:04;;;;;;;13.70;1.80;;;;;;;;;;5076873;28;20271;-76
2022/04/11 05:01:29;;;;;;;13.75;1.75;;;;;;;;;;5078154;28;20036;-75
2022/04/11 05:03:55;;;;;;;9.25;1.33;;;;;;;;;;5079245;28;20029;-75
2022/04/11 05:06:22;;;;;;;17.65;2.05;;;;;;;;;;5078596;28;20111;-75
2022/04/11 05:08:48;;;;;;;9.20;1.17;;;;;;;;;;5073105;28;20101;-74
2022/04/11 05:11:13;;;;;;;8.38;1.45;;;;;;;;;;5077696;28;20174;-75
2022/04/11 05:13:40;;;;;;;13.98;1.60;;;;;;;;;;5079888;28;20021;-76
2022/04/11 05:16:05;;;;;;;7.53;1.42;;;;;;;;;;5078709;28;20272;-76
2022/04/11 05:18:31;;;;;;;10.75;2.22;;;;;;;;;;5075911;28;20031;-76
2022/04/11 05:20:57;;;;;;;10.68;1.30;;;;;;;;;;5064473;28;20055;-76
2022/04/11 05:23:22;;;;;;;14.43;1.77;;;;;;;;;;5096559;28;20366;-75
2022/04/11 05:25:48;;;;;;;9.02;1.17;;;;;;;;;;5079922;28;20279;-75
2022/04/11 05:28:13;;;;;;;10.15;1.63;;;;;;;;;;5084165;28;20016;-75
2022/04/11 05:30:39;;;;;;;24.05;2.08;;;;;;;;;;5077443;28;20028;-75
2022/04/11 05:33:04;;;;;;;12.73;1.55;;;;;;;;;;5079332;28;20031;-75
2022/04/11 05:35:30;;;;;;;11.82;1.73;;;;;;;;;;5082075;28;20326;-75
2022/04/11 05:37:55;;;;;;;19.85;2.03;;;;;;;;;;5080218;28;20017;-75
2022/04/11 05:40:22;;;;;;;18.27;1.67;;;;;;;;;;5083905;28;20083;-75
2022/04/11 05:42:47;;;;;;;11.85;1.30;;;;;;;;;;5082313;28;20119;-75
2022/04/11 05:45:13;;;;;;;13.23;1.80;;;;;;;;;;5079812;28;20017;-75
2022/04/11 05:47:38;;;;;;;11.93;1.48;;;;;;;;;;5079886;28;20066;-74
2022/04/11 05:50:05;;;;;;;12.45;1.67;;;;;;;;;;5081730;28;20161;-75
2022/04/11 05:52:30;;;;;;;14.82;1.75;;;;;;;;;;5093958;28;20017;-75
2022/04/11 05:54:56;;;;;;;13.82;1.52;;;;;;;;;;5078606;28;20055;-76
2022/04/11 05:57:21;;;;;;;7.80;1.52;;;;;;;;;;5097630;28;20039;-76
2022/04/11 05:59:47;;;;;;;9.48;1.50;;;;;;;;;;5081372;28;20020;-75
2022/04/11 06:02:12;;;;;;;8.73;1.58;;;;;;;;;;5061672;28;20265;-76
2022/04/11 06:04:38;;;;;;;10.98;2.13;;;;;;;;;;5059110;28;20103;-75
2022/04/11 06:07:08;;;;;;;12.25;1.33;;;;;;;;;;5083164;28;20039;-74
2022/04/11 06:09:34;;;;;;;10.38;1.60;;;;;;;;;;5084140;28;20008;-75
2022/04/11 06:12:00;;;;;;;11.73;2.15;;;;;;;;;;5080891;28;20265;-75
2022/04/11 06:14:25;;;;;;;12.77;2.08;;;;;;;;;;5062682;28;20032;-75
2022/04/11 06:16:51;;;;;;;7.70;1.85;;;;;;;;;;5098770;28;20008;-75
2022/04/11 06:19:19;;;;;;;15.68;1.75;;;;;;;;;;5078960;28;20020;-76
2022/04/11 06:21:44;;;;;;;15.40;2.08;;;;;;;;;;5081693;28;20024;-75
2022/04/11 06:24:10;;;;;;;10.32;2.25;;;;;;;;;;5082254;28;20048;-75
2022/04/11 06:26:38;;;;;;;9.48;1.98;;;;;;;;;;5075074;28;20041;-75
2022/04/11 06:29:04;;;;;;;11.73;1.63;;;;;;;;;;5081942;28;20092;-75
2022/04/11 06:31:29;;;;;;;6.78;1.20;;;;;;;;;;5046795;28;20027;-74
2022/04/11 06:33:55;;;;;;;9.20;1.60;;;;;;;;;;5062376;28;20242;-75
2022/04/11 06:36:20;;;;;;;16.15;1.92;;;;;;;;;;5078818;28;20103;-75
2022/04/11 06:38:46;;;;;;;10.73;1.55;;;;;;;;;;5076469;28;20028;-74
2022/04/11 06:41:11;;;;;;;13.30;1.42;;;;;;;;;;5078228;28;20249;-74
2022/04/11 06:43:37;;;;;;;17.05;2.90;;;;;;;;;;5077262;28;20040;-75
2022/04/11 06:46:02;;;;;;;13.60;1.92;;;;;;;;;;5062384;28;20130;-74
2022/04/11 06:48:28;;;;;;;12.50;1.58;;;;;;;;;;5080155;28;20143;-73
2022/04/11 06:50:53;;;;;;;9.80;1.60;;;;;;;;;;5094874;28;20016;-74
2022/04/11 06:53:20;;;;;;;11.80;1.23;;;;;;;;;;5081614;28;20024;-75
2022/04/11 06:55:47;;;;;;;14.43;1.60;;;;;;;;;;5078861;28;20025;-75
2022/04/11 06:58:14;;;;;;;13.15;1.67;;;;;;;;;;5079169;28;20612;-75
2022/04/11 07:00:40;;;;;;;17.73;2.35;;;;;;;;;;5059171;28;20284;-76
2022/04/11 07:03:05;;;;;;;16.23;1.80;;;;;;;;;;5077444;28;20036;-75
2022/04/11 07:05:31;;;;;;;9.82;1.63;;;;;;;;;;5095189;28;20016;-75
2022/04/11 07:07:57;;;;;;;7.90;1.50;;;;;;;;;;5079930;28;20021;-75
2022/04/11 07:10:23;;;;;;;8.10;1.77;;;;;;;;;;5064933;28;20277;-75
2022/04/11 07:12:49;;;;;;;8.82;1.83;;;;;;;;;;5080924;28;20028;-74
2022/04/11 07:15:15;;;;;;;14.88;1.80;;;;;;;;;;5077838;28;20033;-75
2022/04/11 07:17:40;;;;;;;11.25;1.63;;;;;;;;;;5083601;28;20061;-75
2022/04/11 07:20:06;;;;;;;5.03;1.88;;;;;;;;;;5081479;28;20051;-75
2022/04/11 07:22:32;;;;;;;11.55;1.63;;;;;;;;;;5069889;28;20056;-75
2022/04/11 07:24:59;;;;;;;14.80;2.58;;;;;;;;;;5100433;28;20036;-76
2022/04/11 07:27:24;;;;;;;8.90;1.95;;;;;;;;;;5081261;28;20020;-75
2022/04/11 07:29:50;;;;;;;13.20;1.42;;;;;;;;;;5077055;28;20282;-75
2022/04/11 07:32:15;;;;;;;12.55;1.85;;;;;;;;;;5045853;28;20057;-75
2022/04/11 07:34:41;;;;;;;6.90;1.83;;;;;;;;;;5076792;28;20035;-75
2022/04/11 07:37:07;;;;;;;7.07;1.80;;;;;;;;;;5078352;28;20028;-75
2022/04/11 07:39:33;;;;;;;7.50;1.55;;;;;;;;;;5080723;28;20020;-75
2022/04/11 07:41:58;;;;;;;25.98;2.40;;;;;;;;;;5079714;28;20020;-75
2022/04/11 07:44:24;;;;;;;5.47;1.90;;;;;;;;;;5074564;28;20020;-74
2022/04/11 07:46:49;;;;;;;8.77;1.77;;;;;;;;;;5084987;28;20277;-75
2022/04/11 07:49:15;;;;;;;8.85;1.67;;;;;;;;;;5047097;28;20452;-74
2022/04/11 07:51:40;;;;;;;25.20;2.75;;;;;;;;;;5055573;28;20048;-75
2022/04/11 07:54:06;;;;;;;11.70;1.88;;;;;;;;;;5064010;28;20040;-75
2022/04/11 07:56:32;;;;;;;14.27;2.53;;;;;;;;;;5060338;28;20028;-74
2022/04/11 07:58:57;;;;;;;7.18;1.85;;;;;;;;;;5078917;28;20077;-75
2022/04/11 08:01:24;;;;;;;9.55;2.10;;;;;;;;;;5076142;28;20087;-74
2022/04/11 08:03:49;;;;;;;16.60;2.00;;;;;;;;;;5078757;28;20039;-75
2022/04/11 08:06:15;;;;;;;7.55;1.60;;;;;;;;;;5074540;28;20016;-75
2022/04/11 08:08:44;;;;;;;17.90;2.13;;;;;;;;;;5060282;28;20020;-74
2022/04/11 08:11:11;;;;;;;8.90;1.98;;;;;;;;;;5061774;28;20020;-75
2022/04/11 08:13:38;;;;;;;10.90;2.50;;;;;;;;;;5060439;28;20024;-74
2022/04/11 08:16:04;;;;;;;9.18;1.98;;;;;;;;;;5060308;28;20035;-75
2022/04/11 08:18:30;;;;;;;12.50;2.58;;;;;;;;;;5054716;28;20228;-73
2022/04/11 08:20:55;;;;;;;12.05;2.08;;;;;;;;;;5072172;28;20020;-77
2022/04/11 08:23:21;;;;;;;13.30;1.70;;;;;;;;;;5074425;28;20040;-74
2022/04/11 08:25:48;;;;;;;10.27;1.67;;;;;;;;;;5080941;28;20027;-75
2022/04/11 08:28:13;;;;;;;10.20;1.88;;;;;;;;;;5076742;28;20016;-75
2022/04/11 08:30:39;;;;;;;9.38;2.67;;;;;;;;;;5070599;28;20035;-74
2022/04/11 08:33:04;;;;;;;9.23;1.70;;;;;;;;;;5051514;28;20205;-75
2022/04/11 08:35:30;;;;;;;9.63;1.92;;;;;;;;;;5079056;28;20028;-75
2022/04/11 08:37:55;;;;;;;8.23;1.50;;;;;;;;;;5049556;28;20077;-75
2022/04/11 08:40:21;;;;;;;10.73;1.92;;;;;;;;;;5057397;28;20198;-74
2022/04/11 08:42:50;;;;;;;12.77;1.95;;;;;;;;;;5077199;28;20020;-75
2022/04/11 08:45:19;;;;;;;48.08;5.70;;;;;;;;;;5079892;28;20009;-75
2022/04/11 08:47:50;;;;;;;17.90;2.28;;;;;;;;;;5074142;28;20033;-76
2022/04/11 08:50:17;;;;;;;188.35;16.35;;;;;;;;;;5068922;28;20036;-76
2022/04/11 08:52:43;;;;;;;49.92;5.50;;;;;;;;;;5076856;28;20393;-76
2022/04/11 08:55:09;;;;;;;6.85;1.65;;;;;;;;;;5069641;28;20032;-75
2022/04/11 08:57:36;;;;;;;20.38;2.05;;;;;;;;;;5082353;28;20042;-75
2022/04/11 09:00:11;;;;;;;11.18;1.73;;;;;;;;;;5088892;28;20040;-75
2022/04/11 09:02:37;;;;;;;54.17;5.00;;;;;;;;;;5083062;28;20284;-74
2022/04/11 09:05:04;;;;;;;9.10;1.60;;;;;;;;;;5079050;28;20013;-74
2022/04/11 09:07:51;;;;;;;36.33;5.43;;;;;;;;;;5082418;28;20058;-76
2022/04/11 09:10:19;;;;;;;13.23;2.40;;;;;;;;;;5096825;28;20016;-75
2022/04/11 09:12:53;;;;;;;12.02;3.00;;;;;;;;;;5079484;28;20017;-74
2022/04/11 09:15:20;;;;;;;8.95;1.70;;;;;;;;;;5080232;28;20066;-75
2022/04/11 09:17:47;;;;;;;16.10;2.85;;;;;;;;;;5085151;28;20272;-75
2022/04/11 09:20:18;;;;;;;12.43;1.95;;;;;;;;;;5098160;28;20278;-76
2022/04/11 09:22:44;;;;;;;15.10;2.85;;;;;;;;;;5099504;28;20048;-75
2022/04/11 09:25:15;;;;;;;13.75;2.70;;;;;;;;;;5080219;28;20027;-75
2022/04/11 09:27:42;;;;;;;10.75;2.00;;;;;;;;;;5080578;28;20127;-76
2022/04/11 09:30:25;;;;;;;6.93;1.30;;;;;;;;;;5084547;28;20156;-76
2022/04/11 09:33:05;;;;;;;21.20;1.80;;;;;;;;;;5079563;28;20070;-74
2022/04/11 09:35:35;;;;;;;9.30;1.83;;;;;;;;;;5081042;28;20052;-75
2022/04/11 09:38:04;;;;;;;18.52;2.60;;;;;;;;;;5081216;28;20036;-75
2022/04/11 09:40:29;;;;;;;8.93;1.92;;;;;;;;;;5080659;28;20017;-75
2022/04/11 09:42:58;;;;;;;18.38;2.72;;;;;;;;;;5078360;28;20035;-76
2022/04/11 09:45:24;;;;;;;12.75;1.80;;;;;;;;;;5076138;28;20099;-75
2022/04/11 09:48:04;;;;;;;19.60;2.10;;;;;;;;;;5064086;28;20024;-73
2022/04/11 09:50:31;;;;;;;10.13;1.95;;;;;;;;;;5078540;28;20047;-76
2022/04/11 09:53:33;;;;;;;14.50;1.83;;;;;;;;;;5081694;28;20250;-77
2022/04/11 09:56:02;;;;;;;11.55;2.40;;;;;;;;;;5073374;28;20090;-76
2022/04/11 09:58:28;;;;;;;17.45;2.75;;;;;;;;;;5063883;28;20047;-76
2022/04/11 10:00:54;;;;;;;12.43;1.90;;;;;;;;;;5057835;28;20016;-74
2022/04/11 10:03:21;;;;;;;11.05;2.42;;;;;;;;;;5077733;28;20062;-74
2022/04/11 10:05:46;;;;;;;11.18;2.45;;;;;;;;;;5081292;28;20062;-75
2022/04/11 10:08:15;;;;;;;8.15;2.10;;;;;;;;;;5077553;28;20234;-74
2022/04/11 10:10:42;;;;;;;11.52;2.20;;;;;;;;;;5064446;28;20175;-75
2022/04/11 10:13:11;;;;;;;18.23;2.40;;;;;;;;;;5078040;28;20016;-74
2022/04/11 10:15:38;;;;;;;7.85;2.10;;;;;;;;;;5082745;28;20028;-75
2022/04/11 10:18:06;;;;;;;8.20;2.08;;;;;;;;;;5080794;28;20020;-75
2022/04/11 10:20:36;;;;;;;10.43;2.58;;;;;;;;;;5079495;28;20023;-75
2022/04/11 10:23:10;;;;;;;22.10;3.50;;;;;;;;;;5076008;28;20032;-80
2022/04/11 10:26:00;;;;;;;16.23;2.80;;;;;;;;;;5089361;28;20025;-80
2022/04/11 10:28:27;;;;;;;22.17;2.30;;;;;;;;;;5080248;28;20043;-81
2022/04/11 10:31:10;;;;;;;11.93;2.30;;;;;;;;;;5091175;27;20032;-81
2022/04/11 10:33:42;;;;;;;11.73;2.00;;;;;;;;;;5078894;28;20020;-79
2022/04/11 10:36:34;;;;;;;15.48;2.05;;;;;;;;;;5080880;28;20036;-81
2022/04/11 10:39:15;;;;;;;13.80;2.43;;;;;;;;;;5096960;28;20027;-81
2022/04/11 10:42:03;;;;;;;22.88;2.15;;;;;;;;;;5082004;28;20024;-80
2022/04/11 10:44:41;;;;;;;13.63;1.88;;;;;;;;;;5095877;28;20021;-81
2022/04/11 10:47:10;;;;;;;19.27;2.53;;;;;;;;;;5081283;28;20048;-81
2022/04/11 10:49:44;;;;;;;15.32;2.42;;;;;;;;;;5077655;28;20017;-80
2022/04/11 10:52:36;;;;;;;8.00;2.05;;;;;;;;;;5077628;28;20020;-80
2022/04/11 10:55:08;;;;;;;8.48;1.35;;;;;;;;;;5078507;28;20028;-80
2022/04/11 10:57:52;;;;;;;14.07;2.20;;;;;;;;;;5098103;27;20022;-81
2022/04/11 11:00:28;;;;;;;23.92;2.47;;;;;;;;;;5095563;28;20320;-80
2022/04/11 11:02:56;;;;;;;9.77;1.98;;;;;;;;;;5077706;28;20039;-80
2022/04/11 11:05:25;;;;;;;8.07;2.28;;;;;;;;;;5077700;28;20030;-79
2022/04/11 11:08:12;;;;;;;21.23;2.25;;;;;;;;;;5097137;28;20032;-79
2022/04/11 11:10:50;;;;;;;18.55;2.97;;;;;;;;;;5078066;28;20029;-80
2022/04/11 11:13:34;;;;;;;22.92;2.67;;;;;;;;;;5082541;28;20068;-79
2022/04/11 11:16:11;;;;;;;22.13;2.78;;;;;;;;;;5080728;28;20138;-80
2022/04/11 11:18:46;;;;;;;17.42;3.05;;;;;;;;;;5077084;28;20357;-79
2022/04/11 11:21:11;;;;;;;21.83;2.65;;;;;;;;;;5074720;28;20035;-79
2022/04/11 11:23:37;;;;;;;7.57;2.22;;;;;;;;;;5077853;28;20080;-79
2022/04/11 11:26:08;;;;;;;12.45;2.60;;;;;;;;;;5095239;27;20035;-80
2022/04/11 11:28:34;;;;;;;27.15;3.53;;;;;;;;;;5080823;28;20179;-79
2022/04/11 11:31:00;;;;;;;17.58;3.05;;;;;;;;;;5092446;28;20032;-79
2022/04/11 11:33:27;;;;;;;15.55;3.03;;;;;;;;;;5093115;28;20035;-79
2022/04/11 11:35:54;;;;;;;16.88;2.60;;;;;;;;;;5097052;28;20122;-80
2022/04/11 11:38:25;;;;;;;13.10;2.50;;;;;;;;;;5078784;28;20191;-82
2022/04/11 11:40:57;;;;;;;11.73;2.88;;;;;;;;;;5081578;28;20084;-80
2022/04/11 11:43:24;;;;;;;12.57;2.70;;;;;;;;;;5078848;28;20032;-82
2022/04/11 11:45:49;;;;;;;11.77;2.78;;;;;;;;;;5081460;28;20021;-81
2022/04/11 11:48:28;;;;;;;8.75;2.00;;;;;;;;;;5068134;28;21076;-81
2022/04/11 11:50:56;;;;;;;13.90;2.63;;;;;;;;;;5079403;28;20087;-81
2022/04/11 11:53:23;;;;;;;13.02;2.70;;;;;;;;;;5080236;28;20036;-75
2022/04/11 11:55:59;;;;;;;22.70;4.38;;;;;;;;;;5079180;28;20103;-75
2022/04/11 11:58:39;;;;;;;11.40;2.58;;;;;;;;;;5078483;28;20234;-75
2022/04/11 12:01:09;;;;;;;19.63;2.40;;;;;;;;;;5080110;28;20087;-76
2022/04/11 12:06:26;;;;;;;17.17;2.30;;;;;;;;;;5066022;28;20162;-76
2022/04/11 12:08:56;;;;;;;18.90;3.50;;;;;;;;;;5080752;28;20059;-75
2022/04/11 12:11:24;;;;;;;17.27;2.85;;;;;;;;;;5096432;28;20087;-75
2022/04/11 12:14:01;;;;;;;16.20;2.97;;;;;;;;;;5072983;28;20017;-74
2022/04/11 12:16:29;;;;;;;14.20;2.58;;;;;;;;;;5078688;28;20054;-75
2022/04/11 12:18:56;;;;;;;9.63;2.08;;;;;;;;;;5078510;28;20025;-74
2022/04/11 12:21:40;;;;;;;11.85;2.40;;;;;;;;;;5084085;28;20038;-76
2022/04/11 12:24:11;;;;;;;11.32;1.85;;;;;;;;;;5076944;28;20309;-75
2022/04/11 12:26:39;;;;;;;16.10;2.25;;;;;;;;;;5074163;28;20059;-76
2022/04/11 12:29:14;;;;;;;19.73;2.75;;;;;;;;;;5076205;28;20013;-76
2022/04/11 12:32:04;;;;;;;11.43;2.47;;;;;;;;;;5083575;28;20310;-75
2022/04/11 12:34:39;;;;;;;8.68;2.08;;;;;;;;;;5081484;28;20264;-75
2022/04/11 12:37:07;;;;;;;11.43;2.47;;;;;;;;;;5082209;28;20066;-74
2022/04/11 12:40:05;;;;;;;9.93;1.77;;;;;;;;;;5070843;28;20107;-74
2022/04/11 12:42:35;;;;;;;9.25;2.40;;;;;;;;;;5072340;28;20489;-76
2022/04/11 12:45:06;;;;;;;19.48;2.20;;;;;;;;;;5083104;28;20029;-76
2022/04/11 12:47:32;;;;;;;14.70;2.55;;;;;;;;;;5077012;28;20025;-75
2022/04/11 12:49:58;;;;;;;14.80;2.17;;;;;;;;;;5087288;28;20029;-73
2022/04/11 12:52:28;;;;;;;13.43;2.13;;;;;;;;;;5082398;28;20017;-75
2022/04/11 12:55:01;;;;;;;15.02;2.00;;;;;;;;;;5079324;28;20023;-76
2022/04/11 12:57:28;;;;;;;9.80;1.65;;;;;;;;;;5084778;28;20016;-75
2022/04/11 12:59:54;;;;;;;12.90;2.33;;;;;;;;;;5074836;28;20048;-75
2022/04/11 13:02:22;;;;;;;5.55;1.77;;;;;;;;;;5074445;28;20070;-74
2022/04/11 13:04:54;;;;;;;7.18;2.05;;;;;;;;;;5080402;28;20016;-75
2022/04/11 13:07:21;;;;;;;15.07;2.33;;;;;;;;;;5082460;28;20029;-76
2022/04/11 13:09:47;;;;;;;16.83;1.95;;;;;;;;;;5081375;28;20025;-73
2022/04/11 13:12:16;;;;;;;16.75;2.45;;;;;;;;;;5078479;28;20040;-76
2022/04/11 13:14:45;;;;;;;15.40;2.40;;;;;;;;;;5076421;28;20013;-76
2022/04/11 13:19:57;;;;;;;15.93;1.92;;;;;;;;;;5074444;28;20086;-76
2022/04/11 13:22:24;;;;;;;13.88;2.17;;;;;;;;;;5076282;28;20032;-76
2022/04/11 13:24:51;;;;;;;13.75;1.80;;;;;;;;;;5093330;28;20066;-75
2022/04/11 13:27:20;;;;;;;12.10;2.00;;;;;;;;;;5079849;28;20028;-76
2022/04/11 13:29:47;;;;;;;12.57;2.95;;;;;;;;;;5079309;28;20035;-76
2022/04/11 13:32:12;;;;;;;13.40;2.08;;;;;;;;;;5080074;28;20023;-75
2022/04/11 13:34:38;;;;;;;10.25;1.88;;;;;;;;;;5081872;28;20029;-74
2022/04/11 13:37:05;;;;;;;16.45;1.90;;;;;;;;;;5083370;28;20029;-75
2022/04/11 13:39:31;;;;;;;6.95;1.60;;;;;;;;;;5068546;28;20373;-75
2022/04/11 13:41:57;;;;;;;13.98;2.20;;;;;;;;;;5080924;28;20044;-75
2022/04/11 13:44:23;;;;;;;34.08;3.75;;;;;;;;;;5081168;28;20278;-76
2022/04/11 13:46:49;;;;;;;11.25;2.00;;;;;;;;;;5068591;28;20024;-75
2022/04/11 13:49:16;;;;;;;13.70;2.55;;;;;;;;;;5082083;28;20298;-76
2022/04/11 13:51:41;;;;;;;13.18;2.17;;;;;;;;;;5082374;28;20036;-76
2022/04/11 13:54:08;;;;;;;14.90;2.47;;;;;;;;;;5083232;28;20362;-75
2022/04/11 13:56:40;;;;;;;22.70;2.55;;;;;;;;;;5077090;28;20062;-75
2022/04/11 13:59:14;;;;;;;21.33;3.85;;;;;;;;;;5081566;28;20040;-75
2022/04/11 14:01:41;;;;;;;15.27;2.20;;;;;;;;;;5092292;28;20020;-75
2022/04/11 14:04:07;;;;;;;18.80;2.60;;;;;;;;;;5084595;28;20032;-75
2022/04/11 14:06:34;;;;;;;10.75;2.08;;;;;;;;;;5100091;27;20088;-75
2022/04/11 14:09:01;;;;;;;18.15;2.53;;;;;;;;;;5081088;28;20036;-76
2022/04/11 14:11:27;;;;;;;11.20;1.95;;;;;;;;;;5080416;28;20070;-75
2022/04/11 14:13:52;;;;;;;14.95;2.10;;;;;;;;;;5048172;28;20024;-75
2022/04/11 14:16:18;;;;;;;24.63;2.97;;;;;;;;;;5085164;28;20020;-75
2022/04/11 14:18:43;;;;;;;15.15;2.63;;;;;;;;;;5080447;28;20025;-75
2022/04/11 14:21:09;;;;;;;12.68;1.73;;;;;;;;;;5065204;28;20066;-76
2022/04/11 14:23:35;;;;;;;18.38;2.47;;;;;;;;;;5083307;28;20055;-81
2022/04/11 14:26:01;;;;;;;17.80;2.67;;;;;;;;;;5070571;28;20027;-81
2022/04/11 14:28:26;;;;;;;13.48;2.30;;;;;;;;;;5079610;28;20044;-80
2022/04/11 14:30:52;;;;;;;18.70;2.53;;;;;;;;;;5063842;28;20027;-80
2022/04/11 14:33:17;;;;;;;18.02;2.00;;;;;;;;;;5078082;28;20031;-81
2022/04/11 14:35:46;;;;;;;13.10;1.85;;;;;;;;;;5079696;28;20298;-80
2022/04/11 14:38:13;;;;;;;13.45;2.85;;;;;;;;;;5095394;28;20133;-80
2022/04/11 14:40:41;;;;;;;17.08;2.78;;;;;;;;;;5081200;28;20048;-80
2022/04/11 14:43:07;;;;;;;15.82;2.08;;;;;;;;;;5098094;28;20042;-80